Time;durP1;ratioP1;P1;durP2;ratioP2;P2;SDS_P1;SDS_P2;PMS_P1;PMS_P2;Temp;Humidity;BMP_temperature;BMP_pressure;BME280_temperature;BME280_humidity;BME280_pressure;Samples;Min_cycle;Max_cycle;Signal;HPM_P1;HPM_P2
2022/12/10 00:01:50;;;;;;;44.83;25.00;;;-0.90;99.90;;;;;;5070926;28;20080;-66
2022/12/10 00:04:15;;;;;;;47.03;24.35;;;-0.90;99.90;;;;;;5049015;28;20060;-66
2022/12/10 00:06:42;;;;;;;47.15;25.05;;;-0.80;99.90;;;;;;5048471;28;20045;-66
2022/12/10 00:09:11;;;;;;;54.67;28.20;;;-0.90;99.90;;;;;;5067960;28;20068;-66
2022/12/10 00:11:38;;;;;;;53.47;25.60;;;-0.80;99.90;;;;;;5071060;28;20401;-66
2022/12/10 00:14:04;;;;;;;44.85;24.50;;;-0.90;99.90;;;;;;5067514;28;20060;-66
2022/12/10 00:16:33;;;;;;;49.85;26.27;;;-0.90;99.90;;;;;;5064570;28;20043;-66
2022/12/10 00:19:00;;;;;;;51.83;27.17;;;-1.00;99.90;;;;;;5057261;28;20051;-65
2022/12/10 00:21:28;;;;;;;53.60;27.60;;;-1.00;99.90;;;;;;5067535;28;20044;-66
2022/12/10 00:23:55;;;;;;;56.33;26.27;;;-1.00;99.90;;;;;;5050164;28;20044;-65
2022/12/10 00:26:32;;;;;;;50.00;25.83;;;-1.00;99.90;;;;;;5068129;28;20053;-66
2022/12/10 00:29:00;;;;;;;50.33;26.25;;;-1.00;99.90;;;;;;5060055;28;20053;-66
2022/12/10 00:31:29;;;;;;;49.15;26.67;;;-0.90;99.90;;;;;;5066436;28;20120;-65
2022/12/10 00:34:00;;;;;;;53.72;27.65;;;-1.00;99.90;;;;;;5059808;28;20045;-65
2022/12/10 00:36:29;;;;;;;57.75;30.73;;;-0.90;99.90;;;;;;5057735;28;20045;-65
2022/12/10 00:38:55;;;;;;;59.83;28.95;;;-0.80;99.90;;;;;;5086613;28;20048;-66
2022/12/10 00:41:21;;;;;;;54.92;27.65;;;-0.80;99.90;;;;;;5055372;28;20045;-66
2022/12/10 00:43:47;;;;;;;55.45;29.67;;;-0.80;99.90;;;;;;5048626;28;20056;-66
2022/12/10 00:46:15;;;;;;;60.45;29.98;;;-0.70;99.90;;;;;;5067084;28;20059;-66
2022/12/10 00:48:41;;;;;;;63.00;28.55;;;-0.60;99.90;;;;;;5072414;28;20044;-66
2022/12/10 00:51:10;;;;;;;62.10;28.58;;;-0.60;99.90;;;;;;5056127;28;20076;-66
2022/12/10 00:53:37;;;;;;;55.60;28.85;;;-0.60;99.90;;;;;;5049239;28;20045;-66
2022/12/10 00:56:04;;;;;;;55.95;29.02;;;-0.40;99.90;;;;;;5078665;28;20048;-66
2022/12/10 00:58:31;;;;;;;59.38;29.67;;;-0.50;99.90;;;;;;5082971;28;20048;-66
2022/12/10 01:01:34;;;;;;;57.20;28.95;;;-0.50;99.90;;;;;;5076637;28;20172;-66
2022/12/10 01:04:09;;;;;;;56.70;28.02;;;-0.50;99.90;;;;;;5026238;28;20049;-66
2022/12/10 01:06:50;;;;;;;61.60;29.05;;;-0.50;99.90;;;;;;5026060;28;20088;-65
2022/12/10 01:09:19;;;;;;;59.97;29.25;;;-0.60;99.90;;;;;;5024240;28;20072;-66
2022/12/10 01:11:47;;;;;;;59.97;28.90;;;-0.50;99.90;;;;;;5014583;28;20071;-66
2022/12/10 01:14:17;;;;;;;61.13;30.55;;;-0.40;99.90;;;;;;5043161;28;20065;-66
2022/12/10 01:16:43;;;;;;;60.15;29.65;;;-0.40;99.90;;;;;;5048970;28;20045;-65
2022/12/10 01:19:09;;;;;;;58.05;27.63;;;-0.40;99.90;;;;;;5026341;28;20045;-65
2022/12/10 01:21:35;;;;;;;59.38;28.05;;;-0.40;99.90;;;;;;5043148;28;20051;-65
2022/12/10 01:24:02;;;;;;;61.55;28.45;;;-0.40;99.90;;;;;;5043418;28;20110;-65
2022/12/10 01:26:30;;;;;;;62.03;29.30;;;-0.40;99.90;;;;;;5051111;28;20076;-66
2022/12/10 01:28:57;;;;;;;61.45;29.98;;;-0.40;99.90;;;;;;5031442;28;20053;-65
2022/12/10 01:31:28;;;;;;;61.03;30.55;;;-0.40;99.90;;;;;;5026562;28;20041;-65
2022/12/10 01:33:55;;;;;;;60.20;29.40;;;-0.40;99.90;;;;;;5041961;28;20068;-65
2022/12/10 01:36:35;;;;;;;64.43;30.65;;;-0.40;99.90;;;;;;5025970;28;20532;-65
2022/12/10 01:39:02;;;;;;;63.03;30.38;;;-0.40;99.90;;;;;;5041696;28;20045;-65
2022/12/10 01:41:31;;;;;;;61.83;30.20;;;-0.40;99.90;;;;;;5055573;28;20108;-66
2022/12/10 01:44:04;;;;;;;61.47;29.70;;;-0.30;99.90;;;;;;5051910;28;20100;-66
2022/12/10 01:46:32;;;;;;;61.15;29.20;;;-0.40;99.90;;;;;;5048389;28;20295;-66
2022/12/10 01:49:01;;;;;;;58.55;29.50;;;-0.20;99.90;;;;;;5052450;28;20052;-66
2022/12/10 01:51:35;;;;;;;64.82;30.95;;;-0.30;99.90;;;;;;5055766;28;20045;-66
2022/12/10 01:54:02;;;;;;;67.90;30.42;;;-0.30;99.90;;;;;;5082421;28;20195;-66
2022/12/10 01:56:30;;;;;;;59.88;28.52;;;-0.40;99.90;;;;;;5065680;28;20084;-66
2022/12/10 01:58:56;;;;;;;63.95;31.20;;;-0.40;99.90;;;;;;5067455;28;20105;-66
2022/12/10 02:02:10;;;;;;;69.97;32.45;;;-0.30;99.90;;;;;;5048653;28;20052;-66
2022/12/10 02:05:11;;;;;;;63.22;29.90;;;-0.30;99.90;;;;;;5016904;28;20529;-66
2022/12/10 02:07:52;;;;;;;62.72;31.40;;;-0.40;99.90;;;;;;5014989;28;20072;-66
2022/12/10 02:10:17;;;;;;;67.85;31.65;;;-0.50;99.90;;;;;;5011376;28;20045;-65
2022/12/10 02:12:51;;;;;;;68.45;31.90;;;-0.40;99.90;;;;;;5008922;28;20123;-66
2022/12/10 02:15:25;;;;;;;67.90;31.73;;;-0.40;99.90;;;;;;5006897;28;20060;-66
2022/12/10 02:18:16;;;;;;;66.07;30.75;;;-0.50;99.90;;;;;;5006318;28;20104;-66
2022/12/10 02:20:47;;;;;;;67.38;30.70;;;-0.50;99.90;;;;;;4989279;28;20100;-66
2022/12/10 02:23:28;;;;;;;68.88;31.83;;;-0.50;99.90;;;;;;5011141;28;20065;-66
2022/12/10 02:26:40;;;;;;;68.25;32.70;;;-0.50;99.90;;;;;;5015640;28;20676;-66
2022/12/10 02:29:21;;;;;;;71.53;33.10;;;-0.50;99.90;;;;;;5001745;28;20053;-65
2022/12/10 02:31:52;;;;;;;65.70;31.73;;;-0.60;99.90;;;;;;5046259;28;20064;-66
2022/12/10 02:34:19;;;;;;;65.47;33.45;;;-0.50;99.90;;;;;;5028429;28;20617;-66
2022/12/10 02:36:48;;;;;;;66.80;32.35;;;-0.50;99.90;;;;;;5021457;28;20406;-66
2022/12/10 02:39:20;;;;;;;66.97;31.70;;;-0.60;99.90;;;;;;5044812;28;20089;-66
2022/12/10 02:41:51;;;;;;;69.43;32.53;;;-0.60;99.90;;;;;;5054708;28;20061;-66
2022/12/10 02:44:19;;;;;;;71.78;33.20;;;-0.50;99.90;;;;;;5066480;28;20086;-66
2022/12/10 02:46:47;;;;;;;71.00;31.65;;;-0.60;99.90;;;;;;5078303;28;20037;-66
2022/12/10 02:49:16;;;;;;;72.35;34.00;;;-0.50;99.90;;;;;;5067222;28;20044;-66
2022/12/10 02:51:41;;;;;;;73.18;35.05;;;-0.50;99.90;;;;;;5053231;28;20112;-66
2022/12/10 02:54:41;;;;;;;76.30;34.97;;;-0.50;99.90;;;;;;5093004;28;20045;-66
2022/12/10 02:57:36;;;;;;;73.00;34.65;;;-0.60;99.90;;;;;;5082374;28;20055;-66
2022/12/10 03:00:08;;;;;;;67.85;31.55;;;-0.70;99.90;;;;;;5077482;28;20057;-65
2022/12/10 03:02:40;;;;;;;74.47;35.90;;;-0.60;99.90;;;;;;5052243;28;20055;-66
2022/12/10 03:05:14;;;;;;;73.15;33.75;;;-0.80;99.90;;;;;;5069734;28;20045;-66
2022/12/10 03:07:47;;;;;;;72.22;34.05;;;-0.70;99.90;;;;;;5071092;28;20052;-65
2022/12/10 03:10:26;;;;;;;68.28;33.67;;;-0.80;99.90;;;;;;5081867;28;20103;-66
2022/12/10 03:13:02;;;;;;;70.68;35.25;;;-0.80;99.90;;;;;;5063668;28;20049;-66
2022/12/10 03:15:32;;;;;;;69.03;33.55;;;-0.80;99.90;;;;;;5055797;28;20049;-66
2022/12/10 03:18:02;;;;;;;72.40;35.80;;;-0.80;99.90;;;;;;5087280;28;20524;-65
2022/12/10 03:20:31;;;;;;;53.28;27.33;;;-0.70;99.90;;;;;;5069465;28;20119;-66
2022/12/10 03:22:57;;;;;;;68.50;32.95;;;-0.70;99.90;;;;;;5069266;28;20048;-66
2022/12/10 03:25:27;;;;;;;70.57;33.58;;;-0.70;99.90;;;;;;5074116;28;20047;-65
2022/12/10 03:27:54;;;;;;;;;;;-0.60;99.90;;;;;;5060233;28;20045;-66
2022/12/10 03:30:20;;;;;;;73.22;33.28;;;-0.70;99.90;;;;;;5063452;28;19928;-66
2022/12/10 03:32:46;;;;;;;70.85;32.35;;;-0.70;99.90;;;;;;5038883;28;20257;-65
2022/12/10 03:35:13;;;;;;;72.57;33.00;;;-0.80;99.90;;;;;;5051374;28;20044;-65
2022/12/10 03:37:39;;;;;;;77.18;35.60;;;-0.80;99.90;;;;;;5028608;28;20053;-65
2022/12/10 03:40:06;;;;;;;85.10;37.50;;;-0.80;99.90;;;;;;5028919;28;20494;-66
2022/12/10 03:42:34;;;;;;;81.78;36.80;;;-0.90;99.90;;;;;;5035765;28;20037;-66
2022/12/10 03:45:00;;;;;;;82.88;35.63;;;-0.80;99.90;;;;;;5032470;28;20080;-66
2022/12/10 03:47:25;;;;;;;69.97;35.42;;;-0.80;99.90;;;;;;5037354;28;20037;-65
2022/12/10 03:49:51;;;;;;;68.75;33.83;;;-0.90;99.90;;;;;;5053733;28;20053;-65
2022/12/10 03:52:17;;;;;;;74.85;33.65;;;-0.90;99.90;;;;;;5048596;28;20045;-65
2022/12/10 03:54:43;;;;;;;72.05;35.38;;;-1.00;99.90;;;;;;5046748;28;20049;-66
2022/12/10 03:57:08;;;;;;;72.25;34.38;;;-1.00;99.90;;;;;;5060310;28;20123;-66
2022/12/10 03:59:34;;;;;;;77.07;34.88;;;-1.10;99.90;;;;;;5028672;28;20046;-66
2022/12/10 04:02:00;;;;;;;71.68;35.03;;;-1.00;99.90;;;;;;5062759;28;20041;-66
2022/12/10 04:04:25;;;;;;;76.18;34.88;;;-1.10;99.90;;;;;;5042090;28;20049;-65
2022/12/10 04:06:51;;;;;;;76.63;35.03;;;-1.00;99.90;;;;;;5032880;28;20397;-66
2022/12/10 04:09:17;;;;;;;76.45;34.95;;;-1.10;99.90;;;;;;5033375;28;20049;-65
2022/12/10 04:11:43;;;;;;;73.00;35.35;;;-1.10;99.90;;;;;;5029152;28;20049;-66
2022/12/10 04:16:54;;;;;;;71.60;32.67;;;-1.10;99.90;;;;;;5058289;28;20081;-65
2022/12/10 04:19:21;;;;;;;75.57;34.75;;;-1.00;99.90;;;;;;5046253;28;20325;-66
2022/12/10 04:27:35;;;;;;;72.03;35.33;;;-1.00;99.90;;;;;;5043394;28;20083;-66
2022/12/10 04:30:01;;;;;;;75.43;34.53;;;-1.10;99.90;;;;;;5061312;28;20573;-65
2022/12/10 04:32:28;;;;;;;76.72;35.13;;;-1.00;99.90;;;;;;5066030;28;20037;-66
2022/12/10 04:34:54;;;;;;;78.63;35.78;;;-1.10;99.90;;;;;;5051207;28;20048;-65
2022/12/10 04:37:21;;;;;;;74.03;37.25;;;-1.00;99.90;;;;;;5043396;28;20067;-65
2022/12/10 04:39:49;;;;;;;71.05;35.22;;;-1.10;99.90;;;;;;5081751;28;20044;-65
2022/12/10 04:42:15;;;;;;;77.18;35.90;;;-1.30;99.90;;;;;;5067102;28;20048;-65
2022/12/10 04:44:41;;;;;;;77.70;35.58;;;-1.30;99.90;;;;;;5072031;28;20087;-66
2022/12/10 04:47:07;;;;;;;75.68;35.22;;;-1.30;99.90;;;;;;5058772;28;20417;-65
2022/12/10 04:49:34;;;;;;;81.50;36.67;;;-1.30;99.90;;;;;;5074845;28;20061;-66
2022/12/10 04:52:00;;;;;;;78.38;35.72;;;-1.30;99.90;;;;;;5068240;28;20033;-66
2022/12/10 04:54:26;;;;;;;77.47;36.47;;;-1.30;99.90;;;;;;5049979;28;20053;-65
2022/12/10 04:56:52;;;;;;;72.97;33.70;;;-1.30;99.90;;;;;;5048250;28;20123;-65
2022/12/10 04:59:18;;;;;;;76.72;36.42;;;-1.20;99.90;;;;;;5064036;28;20527;-66
2022/12/10 05:01:44;;;;;;;75.78;35.40;;;-1.30;99.90;;;;;;5056472;28;20049;-66
2022/12/10 05:04:13;;;;;;;71.70;34.85;;;-1.20;99.90;;;;;;5065907;28;20080;-66
2022/12/10 05:06:39;;;;;;;76.35;35.58;;;-1.20;99.90;;;;;;5059742;28;20100;-65
2022/12/10 05:09:05;;;;;;;78.45;36.40;;;-1.20;99.90;;;;;;5066876;28;20075;-65
2022/12/10 05:11:32;;;;;;;72.53;33.85;;;-1.30;99.90;;;;;;5084752;28;20048;-65
2022/12/10 05:13:58;;;;;;;79.78;36.58;;;-1.30;99.90;;;;;;5066246;28;20053;-66
2022/12/10 05:16:27;;;;;;;75.97;35.28;;;-1.20;99.90;;;;;;5075179;28;20059;-66
2022/12/10 05:18:55;;;;;;;74.43;35.03;;;-1.10;99.90;;;;;;5050092;28;20082;-65
2022/12/10 05:21:22;;;;;;;80.13;35.72;;;-1.20;99.90;;;;;;5070274;28;20049;-65
2022/12/10 05:23:50;;;;;;;75.00;36.85;;;-1.20;99.90;;;;;;5059784;28;20037;-66
2022/12/10 05:26:17;;;;;;;76.57;36.35;;;-1.30;99.90;;;;;;5060078;28;20040;-66
2022/12/10 05:28:45;;;;;;;78.97;35.88;;;-1.30;99.90;;;;;;5072609;28;20511;-65
2022/12/10 05:31:17;;;;;;;85.82;37.10;;;-1.20;99.90;;;;;;5054873;28;20056;-66
2022/12/10 05:33:43;;;;;;;78.10;37.53;;;-1.30;99.90;;;;;;5047270;28;20045;-65
2022/12/10 05:36:11;;;;;;;81.78;36.17;;;-1.30;99.90;;;;;;5056323;28;20096;-66
2022/12/10 05:38:38;;;;;;;80.78;37.47;;;-1.40;99.90;;;;;;5077633;28;20559;-66
2022/12/10 05:41:06;;;;;;;77.35;36.30;;;-1.40;99.90;;;;;;5052683;28;20078;-65
2022/12/10 05:43:32;;;;;;;82.15;36.20;;;-1.40;99.90;;;;;;5063920;28;20052;-65
2022/12/10 05:46:02;;;;;;;76.70;35.22;;;-1.30;99.90;;;;;;5055605;28;20072;-65
2022/12/10 05:48:29;;;;;;;77.25;35.67;;;-1.40;99.90;;;;;;5065657;28;20041;-65
2022/12/10 05:50:55;;;;;;;78.45;35.58;;;-1.40;99.90;;;;;;5078052;28;20055;-65
2022/12/10 05:53:20;;;;;;;76.97;35.53;;;-1.40;99.90;;;;;;5064456;28;20529;-65
2022/12/10 05:55:46;;;;;;;81.75;37.78;;;-1.30;99.90;;;;;;5066013;28;20087;-65
2022/12/10 05:58:11;;;;;;;79.10;36.47;;;-1.40;99.90;;;;;;5047950;28;20526;-65
2022/12/10 06:00:40;;;;;;;74.82;36.17;;;-1.30;99.90;;;;;;5073177;28;20055;-66
2022/12/10 06:03:06;;;;;;;77.68;36.13;;;-1.40;99.90;;;;;;5068161;28;20072;-65
2022/12/10 06:05:41;;;;;;;75.57;34.65;;;-1.30;99.90;;;;;;5083149;28;20044;-66
2022/12/10 06:08:07;;;;;;;86.85;38.25;;;-1.40;99.90;;;;;;5045059;28;20428;-65
2022/12/10 06:10:36;;;;;;;76.03;35.42;;;-1.30;99.90;;;;;;5047946;28;20554;-65
2022/12/10 06:13:03;;;;;;;75.45;35.00;;;-1.30;99.90;;;;;;5048216;28;20522;-66
2022/12/10 06:15:29;;;;;;;73.20;35.67;;;-1.40;99.90;;;;;;5066139;28;20408;-66
2022/12/10 06:17:55;;;;;;;74.82;35.67;;;-1.30;99.90;;;;;;5071757;28;20047;-66
2022/12/10 06:20:22;;;;;;;78.82;37.47;;;-1.30;99.90;;;;;;5047027;28;20053;-66
2022/12/10 06:22:47;;;;;;;80.45;37.00;;;-1.30;99.90;;;;;;5046710;28;20041;-65
2022/12/10 06:25:13;;;;;;;77.70;36.65;;;-1.40;99.90;;;;;;5046589;28;20049;-66
2022/12/10 06:27:39;;;;;;;78.72;37.38;;;-1.40;99.90;;;;;;5050743;28;20049;-66
2022/12/10 06:30:05;;;;;;;79.63;36.97;;;-1.50;99.90;;;;;;5066881;28;20049;-66
2022/12/10 06:32:31;;;;;;;74.97;36.78;;;-1.50;99.90;;;;;;5072899;28;20075;-66
2022/12/10 06:34:57;;;;;;;81.82;35.97;;;-1.50;99.90;;;;;;5083879;28;20040;-66
2022/12/10 06:37:23;;;;;;;86.47;38.45;;;-1.50;99.90;;;;;;5067960;28;20041;-66
2022/12/10 06:39:51;;;;;;;77.53;35.80;;;-1.50;99.90;;;;;;5078368;28;20057;-65
2022/12/10 06:42:17;;;;;;;81.47;36.25;;;-1.40;99.90;;;;;;5064536;28;20044;-65
2022/12/10 06:44:42;;;;;;;86.80;38.22;;;-1.40;99.90;;;;;;5066675;28;20060;-66
2022/12/10 06:47:08;;;;;;;84.05;37.08;;;-1.40;99.90;;;;;;5075796;28;20037;-65
2022/12/10 06:49:34;;;;;;;73.50;34.53;;;-1.30;99.90;;;;;;5079831;28;20139;-66
2022/12/10 06:51:59;;;;;;;81.80;37.38;;;-1.30;99.90;;;;;;5076926;28;20041;-66
2022/12/10 06:54:25;;;;;;;79.15;36.20;;;-1.30;99.90;;;;;;5062918;28;20074;-66
2022/12/10 06:56:51;;;;;;;83.82;37.35;;;-1.30;99.90;;;;;;5059869;28;20045;-66
2022/12/10 06:59:16;;;;;;;80.43;37.72;;;-1.30;99.90;;;;;;5057408;28;20485;-66
2022/12/10 07:01:42;;;;;;;81.13;37.78;;;-1.30;99.90;;;;;;5063054;28;20052;-66
2022/12/10 07:04:08;;;;;;;87.25;36.72;;;-1.30;99.90;;;;;;5065597;28;20051;-65
2022/12/10 07:06:34;;;;;;;82.55;37.08;;;-1.30;99.90;;;;;;5035297;28;20057;-66
2022/12/10 07:08:59;;;;;;;84.72;37.85;;;-1.40;99.90;;;;;;5061693;28;20052;-66
2022/12/10 07:11:25;;;;;;;86.53;39.33;;;-1.40;99.90;;;;;;5059589;28;20044;-66
2022/12/10 07:13:52;;;;;;;80.97;36.28;;;-1.40;99.90;;;;;;5073132;28;20036;-66
2022/12/10 07:16:20;;;;;;;82.55;38.67;;;-1.40;99.90;;;;;;5086180;28;20044;-65
2022/12/10 07:18:49;;;;;;;82.03;37.75;;;-1.40;99.90;;;;;;5066062;28;20037;-65
2022/12/10 07:21:33;;;;;;;76.72;34.80;;;-1.30;99.90;;;;;;5076628;28;20036;-65
2022/12/10 07:24:18;;;;;;;84.30;38.40;;;-1.30;99.90;;;;;;5056024;28;20389;-65
2022/12/10 07:26:45;;;;;;;84.38;39.17;;;-1.30;99.90;;;;;;5085521;28;20040;-66
2022/12/10 07:29:19;;;;;;;80.50;37.08;;;-1.40;99.90;;;;;;5068532;28;20083;-65
2022/12/10 07:31:47;;;;;;;83.65;38.35;;;-1.40;99.90;;;;;;5063886;28;20099;-66
2022/12/10 07:34:13;;;;;;;87.43;37.67;;;-1.40;99.90;;;;;;5060250;28;20400;-66
2022/12/10 07:36:39;;;;;;;86.72;40.88;;;-1.50;99.90;;;;;;5082186;28;20037;-66
2022/12/10 07:39:07;;;;;;;85.88;39.70;;;-1.40;99.90;;;;;;5077760;28;20052;-65
2022/12/10 07:41:34;;;;;;;83.45;38.40;;;-1.50;99.90;;;;;;5067800;28;20060;-66
2022/12/10 07:44:00;;;;;;;88.07;40.45;;;-1.40;99.90;;;;;;5075977;28;20037;-66
2022/12/10 07:46:29;;;;;;;86.22;38.55;;;-1.50;99.90;;;;;;5066371;28;20040;-65
2022/12/10 07:48:55;;;;;;;81.80;38.88;;;-1.40;99.90;;;;;;5061670;28;20037;-65
2022/12/10 07:51:22;;;;;;;83.57;38.53;;;-1.50;99.90;;;;;;5076320;28;20055;-67
2022/12/10 07:53:50;;;;;;;88.07;38.92;;;-1.50;99.90;;;;;;5054887;28;20048;-66
2022/12/10 07:56:16;;;;;;;84.35;38.08;;;-1.40;99.90;;;;;;5049210;28;20084;-67
2022/12/10 07:58:43;;;;;;;87.68;38.72;;;-1.50;99.90;;;;;;5078097;28;20036;-67
2022/12/10 08:01:14;;;;;;;81.95;37.90;;;-1.60;99.90;;;;;;5054813;28;20057;-69
2022/12/10 08:03:40;;;;;;;79.28;36.80;;;-1.70;99.90;;;;;;5066008;28;20041;-69
2022/12/10 08:06:13;;;;;;;78.95;36.88;;;-1.70;99.90;;;;;;5062911;28;20164;-67
2022/12/10 08:08:39;;;;;;;76.97;37.17;;;-1.80;99.90;;;;;;5062383;28;20040;-67
2022/12/10 08:11:06;;;;;;;81.00;37.13;;;-1.80;99.90;;;;;;5037909;28;20047;-67
2022/12/10 08:13:33;;;;;;;66.25;32.83;;;-1.80;99.90;;;;;;5063423;28;20055;-67
2022/12/10 08:16:07;;;;;;;68.03;32.65;;;-1.80;99.90;;;;;;5063485;28;20481;-67
2022/12/10 08:18:34;;;;;;;74.50;35.35;;;-1.90;99.90;;;;;;5060981;28;20052;-67
2022/12/10 08:21:07;;;;;;;80.38;38.53;;;-2.00;99.90;;;;;;5084429;28;20174;-67
2022/12/10 08:23:33;;;;;;;87.88;39.13;;;-2.00;99.90;;;;;;5058727;28;20048;-68
2022/12/10 08:26:03;;;;;;;82.47;37.10;;;-2.00;99.90;;;;;;5055886;28;20049;-67
2022/12/10 08:28:29;;;;;;;83.88;38.15;;;-1.90;99.90;;;;;;5076539;28;20052;-67
2022/12/10 08:30:55;;;;;;;79.32;35.60;;;-1.80;99.90;;;;;;5059129;28;20075;-67
2022/12/10 08:33:21;;;;;;;90.10;39.28;;;-1.80;99.90;;;;;;5057435;28;20156;-67
2022/12/10 08:35:47;;;;;;;88.05;39.75;;;-1.80;99.90;;;;;;5059726;28;20081;-69
2022/12/10 08:38:12;;;;;;;90.53;38.75;;;-1.70;99.90;;;;;;5065341;28;20052;-68
2022/12/10 08:40:41;;;;;;;87.32;37.65;;;-1.70;99.90;;;;;;5031270;28;20049;-69
2022/12/10 08:43:07;;;;;;;86.72;38.60;;;-1.60;99.90;;;;;;5058071;28;20040;-69
2022/12/10 08:45:34;;;;;;;80.65;37.33;;;-1.60;99.90;;;;;;5065542;28;20056;-68
2022/12/10 08:48:01;;;;;;;90.55;38.38;;;-1.60;99.90;;;;;;5062738;28;20123;-71
2022/12/10 08:50:27;;;;;;;98.10;45.75;;;-1.60;99.90;;;;;;5055911;28;20052;-67
2022/12/10 08:52:53;;;;;;;97.15;43.47;;;-1.40;99.90;;;;;;5058690;28;20059;-66
2022/12/10 08:55:19;;;;;;;87.93;40.03;;;-1.40;99.90;;;;;;5081906;28;20040;-67
2022/12/10 08:57:44;;;;;;;89.50;41.30;;;-1.40;99.90;;;;;;5057983;28;20044;-67
2022/12/10 09:00:12;;;;;;;86.03;38.38;;;-1.30;99.90;;;;;;5077552;28;20298;-67
2022/12/10 09:02:38;;;;;;;90.65;40.67;;;-1.30;99.90;;;;;;5053362;28;20049;-67
2022/12/10 09:05:04;;;;;;;86.15;38.28;;;-1.30;99.90;;;;;;5064798;28;20059;-67
2022/12/10 09:07:30;;;;;;;90.22;39.92;;;-1.30;99.90;;;;;;5080220;28;20123;-67
2022/12/10 09:09:55;;;;;;;94.82;41.38;;;-1.20;99.90;;;;;;5062397;28;20558;-65
2022/12/10 09:12:21;;;;;;;92.85;41.40;;;-1.20;99.90;;;;;;5046777;28;20055;-66
2022/12/10 09:14:48;;;;;;;94.47;41.72;;;-1.20;99.90;;;;;;5048295;28;20052;-63
2022/12/10 09:17:14;;;;;;;95.35;39.85;;;-1.20;99.90;;;;;;5043714;28;20098;-63
2022/12/10 09:19:40;;;;;;;90.10;40.15;;;-1.10;99.90;;;;;;5080853;28;20045;-63
2022/12/10 09:22:05;;;;;;;89.05;40.38;;;-1.00;99.90;;;;;;5052535;28;20048;-66
2022/12/10 09:24:32;;;;;;;90.03;40.38;;;-1.00;99.90;;;;;;5064272;28;20068;-63
2022/12/10 09:26:58;;;;;;;94.38;40.33;;;-1.00;99.90;;;;;;5063863;28;20049;-63
2022/12/10 09:29:23;;;;;;;88.53;38.88;;;-1.10;99.90;;;;;;5082073;28;20116;-63
2022/12/10 09:31:53;;;;;;;87.88;40.45;;;-1.10;99.90;;;;;;5080078;28;20079;-63
2022/12/10 09:34:19;;;;;;;88.47;40.58;;;-1.00;99.90;;;;;;5076988;28;20074;-63
2022/12/10 09:36:45;;;;;;;97.82;41.45;;;-1.00;99.90;;;;;;5081567;28;20068;-62
2022/12/10 09:39:11;;;;;;;89.88;40.00;;;-1.00;99.90;;;;;;5063249;28;20044;-62
2022/12/10 09:41:53;;;;;;;103.75;42.78;;;-0.90;99.90;;;;;;5084341;28;20087;-65
2022/12/10 09:44:37;;;;;;;94.25;40.88;;;-0.90;99.90;;;;;;5066193;28;20054;-63
2022/12/10 09:47:07;;;;;;;91.05;39.55;;;-0.80;99.90;;;;;;5059210;28;20045;-63
2022/12/10 09:49:54;;;;;;;93.35;42.28;;;-0.70;99.90;;;;;;5058778;28;20058;-63
2022/12/10 09:52:23;;;;;;;93.60;42.67;;;-0.60;99.90;;;;;;5058081;28;20056;-66
2022/12/10 09:55:01;;;;;;;85.20;39.47;;;-0.50;99.90;;;;;;5061183;28;20493;-64
2022/12/10 09:57:31;;;;;;;87.18;39.25;;;-0.50;99.90;;;;;;5077773;28;20460;-67
2022/12/10 10:00:01;;;;;;;90.25;41.22;;;-0.40;99.90;;;;;;5041559;28;20048;-64
2022/12/10 10:02:30;;;;;;;96.22;44.15;;;-0.30;99.90;;;;;;5033519;28;20580;-65
2022/12/10 10:05:11;;;;;;;85.22;40.17;;;-0.30;99.90;;;;;;5026924;28;20064;-68
2022/12/10 10:07:46;;;;;;;89.88;39.13;;;-0.20;99.90;;;;;;5051068;28;20066;-65
2022/12/10 10:10:25;;;;;;;89.55;40.90;;;-0.20;99.90;;;;;;5045872;28;20060;-65
2022/12/10 10:12:55;;;;;;;83.60;38.58;;;-0.20;99.90;;;;;;5050141;28;20539;-65
2022/12/10 10:15:29;;;;;;;88.70;39.80;;;0.00;99.90;;;;;;5015929;28;20099;-65
2022/12/10 10:17:59;;;;;;;89.28;39.92;;;0.00;99.90;;;;;;5065712;28;20302;-65
2022/12/10 10:20:24;;;;;;;82.05;39.42;;;0.00;99.90;;;;;;5033698;28;20068;-65
2022/12/10 10:22:51;;;;;;;84.13;39.55;;;0.10;99.90;;;;;;5059037;28;20032;-66
2022/12/10 10:25:18;;;;;;;89.20;39.97;;;0.10;99.90;;;;;;5064741;28;20540;-65
2022/12/10 10:27:45;;;;;;;88.82;39.38;;;0.00;99.90;;;;;;5045030;28;20068;-65
2022/12/10 10:30:19;;;;;;;89.18;41.85;;;0.00;99.90;;;;;;5045277;28;20140;-66
2022/12/10 10:32:51;;;;;;;81.80;39.05;;;-0.10;99.90;;;;;;5049849;28;20037;-66
2022/12/10 10:35:45;;;;;;;91.53;43.38;;;0.00;99.90;;;;;;5047744;28;20051;-66
2022/12/10 10:38:26;;;;;;;91.78;41.33;;;0.00;99.90;;;;;;5056706;28;20053;-64
2022/12/10 10:40:56;;;;;;;83.93;40.72;;;0.00;99.90;;;;;;5045746;28;20610;-63
2022/12/10 10:43:30;;;;;;;87.20;40.15;;;0.00;99.90;;;;;;5040018;28;20048;-63
2022/12/10 10:46:02;;;;;;;86.93;42.38;;;-0.10;99.90;;;;;;5048921;28;20056;-69
2022/12/10 10:48:29;;;;;;;89.60;41.75;;;-0.10;99.90;;;;;;5052300;28;20126;-65
2022/12/10 10:51:15;;;;;;;87.95;42.63;;;0.00;99.90;;;;;;5046944;28;20058;-62
2022/12/10 10:53:52;;;;;;;94.07;42.45;;;-0.10;99.90;;;;;;5058593;28;20059;-64
2022/12/10 10:56:27;;;;;;;90.55;41.03;;;0.00;99.90;;;;;;5068907;28;20048;-63
2022/12/10 10:58:58;;;;;;;92.75;42.50;;;0.00;99.90;;;;;;5078753;28;20060;-62
2022/12/10 11:01:26;;;;;;;94.18;44.17;;;-0.10;99.90;;;;;;5063884;28;20057;-62
2022/12/10 11:03:58;;;;;;;91.88;41.85;;;0.00;99.90;;;;;;5047310;28;20049;-62
2022/12/10 11:06:25;;;;;;;94.18;43.40;;;0.00;99.90;;;;;;5043232;28;20056;-63
2022/12/10 11:08:55;;;;;;;93.50;43.28;;;0.00;99.90;;;;;;5058741;28;20036;-64
2022/12/10 11:11:30;;;;;;;;;;;0.00;99.90;;;;;;5035005;28;20071;-64
2022/12/10 11:14:15;;;;;;;90.90;40.80;;;0.00;99.90;;;;;;5062631;28;19947;-63
2022/12/10 11:16:40;;;;;;;98.43;44.08;;;-0.10;99.90;;;;;;5026283;28;20080;-63
2022/12/10 11:19:21;;;;;;;95.35;42.63;;;0.00;99.90;;;;;;5042638;28;20052;-64
2022/12/10 11:21:47;;;;;;;94.07;41.03;;;0.00;99.90;;;;;;5056980;28;20079;-64
2022/12/10 11:24:18;;;;;;;87.18;39.97;;;-0.10;99.90;;;;;;5062132;28;20041;-64
2022/12/10 11:27:04;;;;;;;97.03;42.72;;;-0.10;99.90;;;;;;5051897;28;20125;-64
2022/12/10 11:29:59;;;;;;;97.07;43.63;;;-0.10;99.90;;;;;;5064995;28;20083;-64
2022/12/10 11:32:48;;;;;;;96.03;41.40;;;-0.10;99.90;;;;;;5035229;28;20051;-64
2022/12/10 11:35:41;;;;;;;90.82;41.42;;;-0.10;99.90;;;;;;5042537;28;20053;-64
2022/12/10 11:38:15;;;;;;;96.97;40.28;;;-0.20;99.90;;;;;;4997123;28;20404;-64
2022/12/10 11:41:03;;;;;;;91.88;41.55;;;-0.10;99.90;;;;;;5038902;28;20091;-64
2022/12/10 11:44:01;;;;;;;93.88;41.45;;;0.00;99.90;;;;;;5067182;28;20054;-64
2022/12/10 11:46:34;;;;;;;90.07;40.35;;;0.00;99.90;;;;;;5035334;28;20055;-64
2022/12/10 11:49:23;;;;;;;91.68;41.13;;;0.20;99.90;;;;;;5058116;28;20455;-63
2022/12/10 11:52:13;;;;;;;91.47;39.42;;;0.30;99.90;;;;;;5046026;28;20049;-65
2022/12/10 11:55:07;;;;;;;82.53;38.97;;;0.40;99.90;;;;;;5057668;28;20040;-65
2022/12/10 11:57:48;;;;;;;82.28;38.65;;;0.50;99.90;;;;;;5056343;28;20080;-64
2022/12/10 12:00:22;;;;;;;89.55;41.17;;;0.30;99.90;;;;;;5064098;28;20063;-64
2022/12/10 12:03:16;;;;;;;84.05;40.08;;;0.10;99.90;;;;;;5032445;28;20124;-64
2022/12/10 12:06:15;;;;;;;86.10;38.92;;;0.10;99.90;;;;;;5040011;28;20045;-64
2022/12/10 12:09:13;;;;;;;87.00;39.10;;;0.00;99.90;;;;;;5048104;28;20200;-64
2022/12/10 12:11:57;;;;;;;88.20;38.63;;;0.10;99.90;;;;;;5049498;28;20052;-64
2022/12/10 12:14:48;;;;;;;88.55;40.72;;;0.10;99.90;;;;;;5048975;28;20135;-64
2022/12/10 12:17:23;;;;;;;91.63;40.22;;;0.00;99.90;;;;;;5019704;28;20139;-62
2022/12/10 12:20:00;;;;;;;83.90;37.95;;;0.00;99.90;;;;;;5059620;28;20676;-62
2022/12/10 12:22:31;;;;;;;90.55;39.22;;;-0.10;99.90;;;;;;5049443;28;20056;-62
2022/12/10 12:25:07;;;;;;;85.85;37.15;;;-0.10;99.90;;;;;;5057350;28;20422;-62
2022/12/10 12:27:39;;;;;;;89.43;37.83;;;0.00;99.90;;;;;;5035970;28;20053;-62
2022/12/10 12:30:21;;;;;;;86.47;37.22;;;-0.10;99.90;;;;;;5078245;28;20167;-62
2022/12/10 12:32:53;;;;;;;87.22;36.17;;;0.10;99.90;;;;;;5049210;28;20112;-62
2022/12/10 12:35:53;;;;;;;85.55;36.70;;;0.00;99.90;;;;;;5053823;28;20082;-62
2022/12/10 12:38:26;;;;;;;;;;;0.10;99.90;;;;;;4984030;28;20050;-62
2022/12/10 12:41:06;;;;;;;81.00;32.63;;;0.10;99.90;;;;;;4968614;28;19930;-63
2022/12/10 12:43:35;;;;;;;62.80;30.15;;;0.30;99.90;;;;;;4980657;28;20043;-64
2022/12/10 12:46:04;;;;;;;83.15;35.95;;;0.30;99.90;;;;;;4969080;28;20115;-63
2022/12/10 12:48:41;;;;;;;82.05;36.55;;;0.20;99.90;;;;;;4978026;28;20054;-64
2022/12/10 12:51:19;;;;;;;84.38;35.88;;;0.20;99.90;;;;;;4969067;28;20058;-64
2022/12/10 12:53:45;;;;;;;85.10;37.55;;;0.10;99.90;;;;;;4975921;28;20050;-63
2022/12/10 12:56:21;;;;;;;80.00;35.35;;;0.10;99.90;;;;;;4985804;28;20055;-63